Time;durP1;ratioP1;P1;durP2;ratioP2;P2;SDS_P1;SDS_P2;PMS_P1;PMS_P2;Temp;Humidity;BMP_temperature;BMP_pressure;BME280_temperature;BME280_humidity;BME280_pressure;Samples;Min_cycle;Max_cycle;Signal;HPM_P1;HPM_P2
2024/03/28 00:01:04;;;;;;;4.97;4.57;;;;;;;8.13;65.58;93797.97;4954731;28;20200;-69
2024/03/28 00:03:30;;;;;;;9.43;5.80;;;;;;;8.07;66.04;93794.03;4968161;28;20732;-70
2024/03/28 00:05:57;;;;;;;5.27;4.77;;;;;;;8.10;65.86;93795.59;4968357;28;20499;-69
2024/03/28 00:08:23;;;;;;;4.77;4.37;;;;;;;7.93;66.06;93791.63;4968212;28;20193;-70
2024/03/28 00:10:50;;;;;;;4.90;4.40;;;;;;;7.93;66.73;93789.03;4968221;28;20484;-69
2024/03/28 00:13:16;;;;;;;5.00;4.60;;;;;;;8.03;66.29;93797.81;4967889;28;20479;-70
2024/03/28 00:15:42;;;;;;;4.70;4.30;;;;;;;7.92;65.40;93800.44;4968815;28;21199;-69
2024/03/28 00:18:07;;;;;;;6.40;4.23;;;;;;;7.73;66.38;93801.81;4968116;28;20856;-69
2024/03/28 00:20:33;;;;;;;5.20;4.50;;;;;;;7.85;66.10;93800.88;4967822;28;20189;-70
2024/03/28 00:22:59;;;;;;;5.00;4.50;;;;;;;7.84;65.92;93796.63;4967980;28;20910;-70
2024/03/28 00:25:24;;;;;;;5.27;4.77;;;;;;;7.73;66.31;93799.19;4968305;28;20220;-70
2024/03/28 00:27:50;;;;;;;4.37;3.97;;;;;;;7.76;66.08;93793.72;4966173;28;20921;-69
2024/03/28 00:30:15;;;;;;;5.30;4.80;;;;;;;7.85;65.93;93789.59;4968013;28;20244;-69
2024/03/28 00:32:41;;;;;;;4.87;4.47;;;;;;;7.72;66.00;93794.91;4967650;28;20638;-69
2024/03/28 00:35:07;;;;;;;5.07;4.57;;;;;;;7.74;66.01;93793.00;4967485;28;20173;-71
2024/03/28 00:37:32;;;;;;;4.70;4.20;;;;;;;7.78;65.39;93785.78;4967755;28;20198;-70
2024/03/28 00:39:58;;;;;;;4.40;4.00;;;;;;;7.72;66.49;93784.47;4967597;28;20198;-68
2024/03/28 00:42:23;;;;;;;5.13;4.63;;;;;;;7.67;65.60;93780.53;4967859;28;20200;-70
2024/03/28 00:44:48;;;;;;;4.90;4.40;;;;;;;7.77;65.89;93776.28;4967774;28;20177;-70
2024/03/28 00:47:14;;;;;;;5.03;4.53;;;;;;;7.66;65.77;93768.44;4967805;28;20275;-70
2024/03/28 00:49:39;;;;;;;4.73;4.13;;;;;;;7.68;66.44;93767.38;4967430;28;20208;-70
2024/03/28 00:52:05;;;;;;;5.80;5.20;;;;;;;7.72;65.80;93768.78;4967407;28;20186;-71
2024/03/28 00:54:30;;;;;;;5.00;4.60;;;;;;;7.60;65.74;93756.66;4967654;28;20638;-69
2024/03/28 00:56:55;;;;;;;5.23;4.50;;;;;;;7.45;66.86;93744.78;4967562;28;20173;-69
2024/03/28 00:59:21;;;;;;;4.20;3.80;;;;;;;7.43;66.88;93739.66;4967838;28;20669;-70
2024/03/28 01:01:46;;;;;;;5.77;5.17;;;;;;;7.48;66.54;93734.09;4967753;28;20189;-69
2024/03/28 01:04:14;;;;;;;5.43;4.33;;;;;;;7.53;66.30;93730.19;4978993;28;20221;-71
2024/03/28 01:06:40;;;;;;;5.07;4.57;;;;;;;7.71;66.34;93728.00;4973623;28;20200;-68
2024/03/28 01:09:05;;;;;;;5.23;4.63;;;;;;;7.37;66.59;93711.41;4970224;28;20461;-70
2024/03/28 01:11:31;;;;;;;4.73;4.33;;;;;;;7.47;66.58;93712.41;4969326;28;20205;-69
2024/03/28 01:13:56;;;;;;;4.60;4.20;;;;;;;7.37;66.75;93712.25;4966776;28;20717;-70
2024/03/28 01:16:21;;;;;;;6.33;4.40;;;;;;;7.35;66.40;93719.38;4969777;28;20181;-69
2024/03/28 01:18:47;;;;;;;11.97;4.50;;;;;;;7.50;66.64;93732.22;4970456;28;20174;-69
2024/03/28 01:21:12;;;;;;;4.60;4.20;;;;;;;7.48;66.70;93723.66;4970037;28;20246;-69
2024/03/28 01:23:38;;;;;;;6.33;4.50;;;;;;;7.42;66.03;93728.41;4969576;28;20240;-69
2024/03/28 01:26:03;;;;;;;4.77;4.27;;;;;;;7.26;67.03;93729.66;4968588;28;20232;-69
2024/03/28 01:28:29;;;;;;;4.60;4.20;;;;;;;7.27;66.24;93739.13;4967715;28;20205;-68
2024/03/28 01:31:07;;;;;;;4.93;4.53;;;;;;;7.20;67.12;93736.13;4970832;28;20354;-68
2024/03/28 01:33:32;;;;;;;6.10;4.13;;;;;;;7.31;66.37;93736.19;4970670;28;20724;-68
2024/03/28 01:35:58;;;;;;;5.07;4.67;;;;;;;7.16;66.68;93729.50;4970897;28;20424;-68
2024/03/28 01:38:24;;;;;;;4.47;4.07;;;;;;;7.27;66.23;93729.50;4969012;28;20747;-70
2024/03/28 01:40:50;;;;;;;4.80;4.40;;;;;;;7.09;67.07;93725.69;4970266;28;20425;-69
2024/03/28 01:43:15;;;;;;;4.90;4.50;;;;;;;7.05;67.09;93738.09;4969426;28;20181;-69
2024/03/28 01:45:41;;;;;;;5.80;4.40;;;;;;;7.06;67.62;93741.53;4967481;28;21203;-70
2024/03/28 01:48:07;;;;;;;4.40;4.00;;;;;;;7.11;67.82;93735.06;4967759;28;20263;-69
2024/03/28 01:50:33;;;;;;;5.13;4.63;;;;;;;7.11;67.24;93742.03;4967723;28;20524;-69
2024/03/28 01:52:59;;;;;;;5.10;4.40;;;;;;;7.18;67.46;93738.88;4969152;28;20228;-68
2024/03/28 01:55:25;;;;;;;5.27;4.77;;;;;;;7.40;66.03;93730.28;4967826;28;20186;-67
2024/03/28 01:57:51;;;;;;;4.80;4.30;;;;;;;7.28;66.33;93741.63;4967928;28;20457;-66
2024/03/28 02:00:18;;;;;;;5.63;4.60;;;;;;;7.19;66.74;93727.47;4968593;28;20197;-70
2024/03/28 02:02:43;;;;;;;5.10;4.53;;;;;;;7.21;66.52;93724.78;4977522;28;20181;-69
2024/03/28 02:05:09;;;;;;;5.50;5.00;;;;;;;6.96;67.19;93728.31;4978805;28;20498;-67
2024/03/28 02:07:34;;;;;;;5.67;4.97;;;;;;;7.06;66.63;93734.53;4975309;28;20180;-69
2024/03/28 02:10:00;;;;;;;6.07;5.47;;;;;;;7.04;66.94;93736.44;4986178;28;20233;-71
2024/03/28 02:12:25;;;;;;;5.53;5.00;;;;;;;6.93;67.43;93733.78;4982800;28;20184;-71
2024/03/28 02:14:50;;;;;;;5.13;4.63;;;;;;;6.91;67.32;93726.06;4990431;28;20181;-70
2024/03/28 02:17:16;;;;;;;5.50;5.00;;;;;;;6.97;66.89;93724.78;4982847;28;20232;-68
2024/03/28 02:19:42;;;;;;;5.00;4.50;;;;;;;6.85;67.55;93742.16;4973046;28;20651;-69
2024/03/28 02:22:07;;;;;;;6.30;5.70;;;;;;;6.89;67.17;93732.31;4974116;28;20170;-69
2024/03/28 02:24:34;;;;;;;5.03;4.57;;;;;;;6.90;67.18;93734.00;4975766;28;20582;-68
2024/03/28 02:26:59;;;;;;;4.63;4.17;;;;;;;6.86;66.77;93737.78;4971648;28;20204;-69
2024/03/28 02:29:25;;;;;;;6.23;5.30;;;;;;;6.94;66.67;93731.03;4970682;28;20496;-67
2024/03/28 02:31:50;;;;;;;5.53;4.53;;;;;;;6.94;66.81;93730.22;4970291;28;20177;-70
2024/03/28 02:34:16;;;;;;;5.63;5.13;;;;;;;6.93;66.76;93734.59;4969704;28;20181;-70
2024/03/28 02:36:41;;;;;;;6.13;5.53;;;;;;;6.82;67.69;93721.50;4970462;28;20245;-69
2024/03/28 02:39:07;;;;;;;5.17;4.67;;;;;;;6.66;67.82;93728.75;4969761;28;20204;-68
2024/03/28 02:41:32;;;;;;;6.13;5.10;;;;;;;6.67;68.12;93730.44;4970104;28;20184;-69
2024/03/28 02:43:57;;;;;;;5.20;4.70;;;;;;;6.77;67.92;93731.44;4969815;28;20173;-69
2024/03/28 02:46:23;;;;;;;6.60;5.40;;;;;;;6.71;67.82;93724.06;4968413;28;20177;-70
2024/03/28 02:48:49;;;;;;;5.20;4.70;;;;;;;6.55;68.29;93724.31;4969264;28;20742;-70
2024/03/28 02:51:14;;;;;;;5.13;4.63;;;;;;;6.68;68.01;93725.09;4969474;28;20177;-68
2024/03/28 02:53:40;;;;;;;6.00;5.40;;;;;;;6.69;67.85;93733.78;4969236;28;20258;-68
2024/03/28 02:56:05;;;;;;;5.63;5.13;;;;;;;6.66;67.50;93733.97;4969470;28;20178;-67
2024/03/28 02:58:30;;;;;;;6.03;5.27;;;;;;;6.68;67.83;93724.28;4969391;28;20193;-68
2024/03/28 03:01:01;;;;;;;5.80;5.20;;;;;;;6.64;68.05;93725.44;4969136;28;20280;-69
2024/03/28 03:03:27;;;;;;;5.73;5.13;;;;;;;6.67;68.04;93727.84;4969189;28;20173;-70
2024/03/28 03:05:52;;;;;;;6.00;5.10;;;;;;;6.45;68.35;93725.91;4969488;28;20428;-70
2024/03/28 03:08:17;;;;;;;9.30;5.10;;;;;;;6.54;68.31;93722.66;4969560;28;20197;-70
2024/03/28 03:10:43;;;;;;;7.10;5.73;;;;;;;6.43;68.28;93718.22;4969161;28;21049;-70
2024/03/28 03:13:08;;;;;;;5.37;4.87;;;;;;;6.56;67.83;93710.34;4969014;28;20169;-69
2024/03/28 03:15:34;;;;;;;6.13;5.20;;;;;;;6.58;68.21;93717.09;4969068;28;20256;-71
2024/03/28 03:17:59;;;;;;;7.47;5.70;;;;;;;6.56;68.07;93716.38;4969567;28;20162;-69
2024/03/28 03:20:24;;;;;;;6.83;6.13;;;;;;;6.50;67.99;93714.22;4970400;28;20589;-69
2024/03/28 03:22:52;;;;;;;7.90;6.00;;;;;;;6.56;68.12;93718.16;4970682;28;20276;-69
2024/03/28 03:25:28;;;;;;;6.40;5.80;;;;;;;6.52;68.17;93722.78;4970876;28;20173;-69
2024/03/28 03:36:07;;;;;;;6.53;5.87;;;;;;;6.40;67.96;93722.78;4972203;28;20967;-68
2024/03/28 03:38:33;;;;;;;6.63;5.83;;;;;;;6.20;68.82;93719.00;4971761;28;20417;-72
2024/03/28 03:41:01;;;;;;;6.83;5.50;;;;;;;6.23;68.46;93713.56;4972323;28;20502;-69
2024/03/28 03:43:27;;;;;;;7.90;7.23;;;;;;;6.30;68.37;93709.59;4971442;28;20342;-70
2024/03/28 03:45:53;;;;;;;8.10;6.20;;;;;;;6.36;68.44;93711.78;4971435;28;20503;-69
2024/03/28 03:48:18;;;;;;;9.07;7.43;;;;;;;6.49;67.93;93711.72;4971379;28;20194;-69
2024/03/28 03:50:44;;;;;;;6.97;6.23;;;;;;;6.50;67.92;93702.97;4970216;28;20197;-68
2024/03/28 03:53:10;;;;;;;8.20;5.90;;;;;;;6.35;68.72;93702.28;4969842;28;20174;-71
2024/03/28 03:55:35;;;;;;;6.93;6.10;;;;;;;6.57;67.90;93696.38;4970308;28;20186;-70
2024/03/28 03:58:01;;;;;;;8.73;6.53;;;;;;;6.58;67.73;93698.03;4969407;28;20424;-69
2024/03/28 04:00:26;;;;;;;7.57;6.80;;;;;;;6.36;68.54;93693.53;4968343;28;20269;-70
2024/03/28 04:02:52;;;;;;;10.03;7.10;;;;;;;6.36;68.31;93691.75;4969372;28;20657;-70
2024/03/28 04:05:18;;;;;;;8.37;6.73;;;;;;;6.33;68.38;93680.72;4969022;28;20169;-70
2024/03/28 04:07:43;;;;;;;7.23;6.30;;;;;;;6.37;68.09;93679.56;4969378;28;20181;-69
2024/03/28 04:10:09;;;;;;;7.43;6.67;;;;;;;6.30;68.24;93684.38;4968430;28;20456;-69
2024/03/28 04:12:35;;;;;;;8.63;6.70;;;;;;;6.34;67.77;93687.59;4967656;28;20212;-69
2024/03/28 04:15:00;;;;;;;10.13;7.07;;;;;;;6.26;67.93;93677.75;4968040;28;20416;-69
2024/03/28 04:17:25;;;;;;;7.40;6.50;;;;;;;6.01;68.38;93677.78;4967978;28;20276;-70
2024/03/28 04:19:51;;;;;;;8.90;6.20;;;;;;;5.57;70.26;93679.03;4968211;28;20189;-68
2024/03/28 04:22:17;;;;;;;8.30;6.93;;;;;;;5.71;70.01;93679.75;4968301;28;20633;-68
2024/03/28 04:24:43;;;;;;;7.47;6.50;;;;;;;5.79;69.41;93679.25;4968270;28;20304;-69
2024/03/28 04:27:08;;;;;;;7.83;7.07;;;;;;;5.71;69.83;93673.72;4968367;28;20412;-70
2024/03/28 04:29:34;;;;;;;8.47;7.30;;;;;;;5.67;69.88;93672.25;4968448;28;20205;-72
2024/03/28 04:31:59;;;;;;;10.10;7.10;;;;;;;5.68;69.83;93674.75;4968253;28;20181;-69
2024/03/28 04:34:25;;;;;;;8.43;7.63;;;;;;;5.77;69.58;93677.69;4969394;28;20220;-69
2024/03/28 04:36:50;;;;;;;8.70;6.67;;;;;;;5.41;70.73;93668.84;4970903;28;20180;-70
2024/03/28 04:39:15;;;;;;;10.87;7.10;;;;;;;5.77;69.81;93668.09;4968807;28;20217;-68
2024/03/28 04:41:41;;;;;;;12.00;6.77;;;;;;;5.93;69.38;93657.47;4968943;28;20177;-69
2024/03/28 04:44:06;;;;;;;7.23;6.30;;;;;;;5.88;69.43;93652.59;4968587;28;20201;-69
2024/03/28 04:46:32;;;;;;;8.63;6.50;;;;;;;5.35;70.63;93657.09;4969079;28;20711;-68
2024/03/28 04:48:58;;;;;;;8.10;6.50;;;;;;;5.68;69.46;93659.16;4968791;28;20574;-69
2024/03/28 04:51:24;;;;;;;12.60;6.80;;;;;;;5.82;69.20;93665.19;4968980;28;20330;-70
2024/03/28 04:53:49;;;;;;;11.47;7.20;;;;;;;5.88;68.63;93663.00;4967796;28;20173;-69
2024/03/28 04:56:16;;;;;;;11.17;6.90;;;;;;;5.77;69.42;93667.28;4968663;28;20417;-69
2024/03/28 04:58:41;;;;;;;7.67;6.87;;;;;;;5.70;69.60;93667.69;4969212;28;20256;-68
2024/03/28 05:01:07;;;;;;;8.23;6.90;;;;;;;5.43;70.11;93659.16;4971074;28;20576;-69
2024/03/28 05:03:32;;;;;;;7.17;6.47;;;;;;;5.49;70.01;93661.34;4971510;28;20174;-69
2024/03/28 05:05:58;;;;;;;8.50;7.17;;;;;;;5.38;70.38;93669.03;4972368;28;20180;-67
2024/03/28 05:08:24;;;;;;;9.40;6.97;;;;;;;5.66;69.49;93662.81;4976781;28;20224;-69
2024/03/28 05:10:49;;;;;;;10.83;8.60;;;;;;;5.72;69.48;93654.59;4974570;28;20433;-69
2024/03/28 05:13:14;;;;;;;7.73;6.93;;;;;;;5.43;70.07;93652.22;4970627;28;20920;-69
2024/03/28 05:15:40;;;;;;;7.60;5.97;;;;;;;5.58;69.81;93647.72;4970166;28;20216;-69
2024/03/28 05:18:05;;;;;;;10.57;7.43;;;;;;;5.52;69.79;93650.75;4970129;28;20800;-70
2024/03/28 05:20:31;;;;;;;6.80;5.87;;;;;;;5.75;68.88;93637.94;4967634;28;20196;-69
2024/03/28 05:22:57;;;;;;;9.93;7.03;;;;;;;5.70;69.35;93640.84;4966782;28;20181;-69
2024/03/28 05:25:22;;;;;;;8.00;7.13;;;;;;;5.72;69.01;93637.19;4967297;28;20240;-69
2024/03/28 05:27:48;;;;;;;9.60;6.57;;;;;;;5.57;69.30;93643.44;4965713;28;20534;-69
2024/03/28 05:30:14;;;;;;;8.87;7.20;;;;;;;4.93;71.93;93643.41;4967080;28;20304;-69
2024/03/28 05:32:40;;;;;;;7.30;6.60;;;;;;;5.19;71.04;93652.06;4966875;28;20176;-69
2024/03/28 05:35:05;;;;;;;8.90;7.07;;;;;;;5.14;71.08;93630.75;4965624;28;20244;-68
2024/03/28 05:37:31;;;;;;;8.13;6.87;;;;;;;4.81;71.80;93652.84;4970072;28;20211;-70
2024/03/28 05:39:56;;;;;;;7.23;6.00;;;;;;;5.46;70.50;93661.56;4974362;28;20199;-72
2024/03/28 05:42:21;;;;;;;9.80;6.63;;;;;;;5.42;70.42;93650.53;4971635;28;20608;-71
2024/03/28 05:44:47;;;;;;;11.60;6.83;;;;;;;6.82;66.28;93645.09;4974666;28;20763;-69
2024/03/28 05:47:12;;;;;;;14.87;7.77;;;;;;;7.58;62.76;93641.97;4977774;28;20236;-69
2024/03/28 05:49:38;;;;;;;15.70;6.93;;;;;;;8.07;60.93;93638.16;4979793;28;20204;-70
2024/03/28 05:52:03;;;;;;;14.63;7.20;;;;;;;8.73;57.97;93632.09;4983463;28;20169;-69
2024/03/28 05:54:29;;;;;;;11.90;6.90;;;;;;;8.48;58.26;93630.66;4977356;28;20231;-67
2024/03/28 05:56:54;;;;;;;10.00;6.20;;;;;;;8.57;58.29;93637.72;4988381;28;20602;-71
2024/03/28 05:59:20;;;;;;;14.20;8.60;;;;;;;8.30;58.94;93637.31;4971898;28;20228;-69
2024/03/28 06:01:45;;;;;;;8.10;6.93;;;;;;;8.93;57.35;93640.97;4973418;28;20979;-66
2024/03/28 06:04:11;;;;;;;7.33;6.10;;;;;;;9.85;55.39;93638.53;4973323;28;20185;-67
2024/03/28 06:06:36;;;;;;;12.33;7.07;;;;;;;11.10;51.64;93636.34;4966610;28;20184;-71
2024/03/28 06:09:02;;;;;;;9.63;6.43;;;;;;;11.06;50.66;93619.22;4960307;28;20210;-70
2024/03/28 06:11:27;;;;;;;8.77;6.37;;;;;;;10.39;52.15;93623.41;4968600;28;20181;-69
2024/03/28 06:13:54;;;;;;;7.73;6.50;;;;;;;10.34;52.77;93638.72;4967552;28;21076;-71
2024/03/28 06:16:20;;;;;;;6.87;6.17;;;;;;;12.37;47.67;93634.25;4966753;28;20189;-69
2024/03/28 06:18:45;;;;;;;6.90;6.27;;;;;;;12.45;46.54;93629.09;4963815;28;20460;-70
2024/03/28 06:21:11;;;;;;;6.90;6.17;;;;;;;12.03;48.61;93639.25;4972506;28;20208;-70
2024/03/28 06:23:36;;;;;;;7.00;6.10;;;;;;;13.18;45.24;93624.72;4967693;28;20184;-70
2024/03/28 06:26:02;;;;;;;6.03;5.43;;;;;;;13.52;43.71;93623.06;4967752;28;20173;-70
2024/03/28 06:28:28;;;;;;;6.90;6.30;;;;;;;13.51;43.28;93626.69;4969379;28;20222;-69
2024/03/28 06:30:56;;;;;;;8.17;6.03;;;;;;;10.64;50.67;93632.56;4972214;28;20740;-69
2024/03/28 06:33:25;;;;;;;10.80;6.70;;;;;;;10.45;52.56;93633.38;4967905;28;20491;-69
2024/03/28 06:35:51;;;;;;;7.57;6.57;;;;;;;11.71;48.91;93623.81;4966165;28;20432;-71
2024/03/28 06:38:17;;;;;;;6.90;5.60;;;;;;;11.70;49.37;93620.38;4964328;28;21181;-68
2024/03/28 06:40:46;;;;;;;6.50;5.90;;;;;;;13.57;45.29;93609.44;4959857;28;20844;-69
2024/03/28 06:43:12;;;;;;;7.20;5.53;;;;;;;13.42;45.00;93608.34;4964988;28;20435;-70
2024/03/28 06:45:37;;;;;;;6.53;5.30;;;;;;;13.85;43.89;93596.09;4960700;28;20463;-69
2024/03/28 06:48:04;;;;;;;9.40;6.30;;;;;;;13.17;44.56;93588.84;4967493;28;20599;-70
2024/03/28 06:50:29;;;;;;;7.03;5.70;;;;;;;12.20;47.43;93585.06;4967306;28;20197;-68
2024/03/28 06:52:54;;;;;;;9.40;6.00;;;;;;;10.81;50.96;93602.22;4978844;28;20509;-70
2024/03/28 06:55:20;;;;;;;6.73;6.03;;;;;;;8.94;56.96;93629.53;4972416;28;20673;-68
2024/03/28 06:57:45;;;;;;;6.07;5.47;;;;;;;8.63;57.94;93642.47;4961471;28;20284;-68
2024/03/28 07:00:12;;;;;;;8.67;6.60;;;;;;;8.82;58.19;93646.22;4952991;28;20332;-70
2024/03/28 07:02:37;;;;;;;6.73;5.60;;;;;;;9.27;57.40;93649.47;4959291;28;20182;-69
2024/03/28 07:05:03;;;;;;;18.80;6.70;;;;;;;9.60;55.99;93646.78;4964880;28;20453;-69
2024/03/28 07:07:29;;;;;;;7.80;7.00;;;;;;;9.48;55.90;93641.63;4972883;28;20272;-69
2024/03/28 07:09:58;;;;;;;7.13;6.43;;;;;;;9.30;57.32;93651.81;4966942;28;20535;-68
2024/03/28 07:12:24;;;;;;;6.83;5.83;;;;;;;9.32;57.52;93657.75;4972816;28;20427;-69
2024/03/28 07:14:51;;;;;;;6.53;5.80;;;;;;;9.37;57.16;93667.84;4966193;28;20440;-69
2024/03/28 07:17:16;;;;;;;5.37;4.83;;;;;;;8.15;61.70;93670.66;4967036;28;20420;-68
2024/03/28 07:19:42;;;;;;;7.60;6.53;;;;;;;8.17;61.46;93666.16;4959764;28;21030;-69
2024/03/28 07:22:10;;;;;;;9.43;6.10;;;;;;;8.71;59.44;93668.00;4974444;28;20288;-69
2024/03/28 07:24:36;;;;;;;7.90;7.10;;;;;;;8.63;60.52;93676.47;4968464;28;20273;-66
2024/03/28 07:27:02;;;;;;;9.80;8.20;;;;;;;8.67;59.89;93692.75;4962116;28;20424;-69
2024/03/28 07:29:28;;;;;;;9.63;6.67;;;;;;;8.58;60.03;93703.94;4958545;28;20214;-70
2024/03/28 07:31:53;;;;;;;7.93;6.23;;;;;;;8.55;60.75;93728.53;4964292;28;20448;-69
2024/03/28 07:34:18;;;;;;;7.47;6.67;;;;;;;8.40;60.55;93720.09;4956510;28;20201;-72
2024/03/28 07:36:44;;;;;;;9.03;6.90;;;;;;;8.34;62.25;93715.34;4964121;28;20591;-70
2024/03/28 07:39:11;;;;;;;8.10;7.00;;;;;;;8.46;62.59;93710.97;4920228;28;1178233;-70
2024/03/28 07:41:36;;;;;;;8.93;7.17;;;;;;;8.11;63.25;93703.22;4961006;28;20186;-69
2024/03/28 07:44:02;;;;;;;11.20;7.97;;;;;;;8.15;65.30;93702.88;4963541;28;20524;-70
2024/03/28 07:46:27;;;;;;;10.50;6.90;;;;;;;7.99;65.81;93705.00;4960796;28;20182;-70
2024/03/28 07:48:52;;;;;;;13.07;9.00;;;;;;;7.80;65.16;93718.63;4965615;28;20202;-69
2024/03/28 07:51:18;;;;;;;12.40;8.30;;;;;;;7.54;66.49;93731.88;4961766;28;20726;-70
2024/03/28 07:53:43;;;;;;;7.30;6.60;;;;;;;7.18;67.27;93704.13;4963033;28;20215;-71
2024/03/28 07:56:09;;;;;;;7.97;6.93;;;;;;;7.41;66.97;93692.81;4963899;28;20212;-69
2024/03/28 07:58:34;;;;;;;8.57;6.90;;;;;;;7.26;67.38;93691.34;4965046;28;20217;-69
2024/03/28 08:01:07;;;;;;;8.60;7.67;;;;;;;7.47;67.61;93703.75;4962350;28;20228;-69
2024/03/28 08:03:34;;;;;;;11.47;6.90;;;;;;;7.04;67.82;93707.75;4964333;28;20561;-69
2024/03/28 08:05:59;;;;;;;7.57;6.63;;;;;;;7.42;67.23;93717.13;4967336;28;20444;-69
2024/03/28 08:08:25;;;;;;;9.20;7.70;;;;;;;7.74;67.82;93725.13;4959044;28;20481;-69
2024/03/28 08:10:50;;;;;;;12.57;8.13;;;;;;;8.04;67.36;93732.41;4955967;28;20198;-71
2024/03/28 08:13:16;;;;;;;10.33;8.10;;;;;;;8.13;67.24;93738.72;4962161;28;20247;-71
2024/03/28 08:15:41;;;;;;;10.50;8.63;;;;;;;7.86;66.74;93746.88;4967084;28;20185;-71
2024/03/28 08:18:07;;;;;;;13.60;7.93;;;;;;;8.34;65.37;93757.13;4964010;28;20219;-70
2024/03/28 08:20:32;;;;;;;16.80;7.70;;;;;;;8.35;66.37;93765.81;4961121;28;20213;-70
2024/03/28 08:22:57;;;;;;;11.20;8.00;;;;;;;8.11;67.24;93774.56;4964608;28;20260;-70
2024/03/28 08:25:23;;;;;;;9.93;7.27;;;;;;;7.99;66.65;93765.91;4962919;28;20188;-70
2024/03/28 08:27:49;;;;;;;10.57;7.53;;;;;;;8.11;66.80;93776.38;4970125;28;20522;-69
2024/03/28 08:30:15;;;;;;;9.00;7.70;;;;;;;8.50;66.02;93782.09;4969335;28;20205;-69
2024/03/28 08:32:41;;;;;;;10.00;7.47;;;;;;;8.14;67.19;93800.47;4979543;28;20456;-70
2024/03/28 08:35:07;;;;;;;13.07;7.47;;;;;;;7.91;68.46;93817.03;4959583;28;20181;-69
2024/03/28 08:37:32;;;;;;;8.87;7.67;;;;;;;7.67;68.89;93820.50;4957345;28;20194;-73
2024/03/28 08:39:58;;;;;;;8.43;6.77;;;;;;;7.39;70.36;93824.31;4959246;28;20479;-68
2024/03/28 08:42:23;;;;;;;9.00;8.10;;;;;;;7.37;69.89;93842.72;4961242;28;20568;-69
2024/03/28 08:44:49;;;;;;;13.53;7.80;;;;;;;7.64;69.46;93865.94;4969106;28;20181;-69
2024/03/28 08:47:14;;;;;;;11.30;9.20;;;;;;;7.96;68.27;93878.44;4964211;28;20188;-69
2024/03/28 08:49:40;;;;;;;9.17;8.27;;;;;;;8.10;68.77;93877.38;4959932;28;20835;-70
2024/03/28 08:52:06;;;;;;;8.90;8.00;;;;;;;8.28;68.07;93878.63;4963928;28;20272;-69
2024/03/28 08:54:31;;;;;;;8.87;7.40;;;;;;;8.23;67.75;93887.75;4958243;28;20182;-68
2024/03/28 08:56:57;;;;;;;10.90;8.10;;;;;;;8.31;68.49;93902.84;4966017;28;20185;-68
2024/03/28 08:59:22;;;;;;;10.67;8.17;;;;;;;8.36;67.42;93903.34;4964784;28;20202;-69
2024/03/28 09:01:49;;;;;;;10.50;8.40;;;;;;;8.40;68.05;93915.25;4966471;28;20213;-69
2024/03/28 09:04:17;;;;;;;12.10;7.80;;;;;;;8.55;68.09;93924.56;4968986;28;20196;-68
2024/03/28 09:06:43;;;;;;;13.87;11.20;;;;;;;8.60;68.39;93947.75;4967279;28;21019;-68
2024/03/28 09:09:10;;;;;;;12.13;9.03;;;;;;;8.72;68.04;93951.19;4962189;28;20477;-68
2024/03/28 09:11:37;;;;;;;9.60;7.90;;;;;;;8.51;68.22;93970.19;4967118;28;20445;-69
2024/03/28 09:14:03;;;;;;;9.63;8.10;;;;;;;8.42;68.35;93983.94;4969024;28;20472;-69
2024/03/28 09:16:32;;;;;;;8.80;6.80;;;;;;;8.55;67.98;93982.09;4962394;28;20444;-69
2024/03/28 09:18:59;;;;;;;10.27;8.10;;;;;;;8.49;68.28;93985.16;4953215;28;20844;-70
2024/03/28 09:21:25;;;;;;;9.50;7.97;;;;;;;8.48;68.85;93984.31;4970228;28;20441;-68
2024/03/28 09:23:51;;;;;;;8.27;7.43;;;;;;;8.50;68.49;94002.47;4962793;28;20959;-69
2024/03/28 09:26:19;;;;;;;8.50;7.33;;;;;;;8.70;67.38;94011.47;4956128;28;20528;-71
2024/03/28 09:28:45;;;;;;;8.57;7.63;;;;;;;8.61;68.22;94025.22;4975989;28;20209;-70
2024/03/28 09:31:11;;;;;;;9.27;6.90;;;;;;;8.75;68.92;94016.34;4964638;28;20478;-69
2024/03/28 09:33:37;;;;;;;8.00;6.93;;;;;;;8.72;68.24;94025.25;4958773;28;20272;-69
2024/03/28 09:36:03;;;;;;;7.60;6.80;;;;;;;8.95;68.15;94018.28;4962390;28;20592;-71
2024/03/28 09:38:28;;;;;;;9.10;7.90;;;;;;;8.83;68.11;94035.72;4977770;28;20185;-70
2024/03/28 09:40:56;;;;;;;9.83;6.30;;;;;;;8.95;67.44;94033.97;4974034;28;20283;-69
2024/03/28 09:43:22;;;;;;;11.03;5.80;;;;;;;8.93;67.95;94041.13;4978415;28;20188;-70
2024/03/28 09:45:48;;;;;;;6.90;6.20;;;;;;;8.91;68.54;94048.25;4962009;28;20441;-69
2024/03/28 09:48:16;;;;;;;7.77;4.93;;;;;;;8.96;68.70;94048.75;4973194;28;20221;-70
2024/03/28 09:50:42;;;;;;;5.20;3.97;;;;;;;8.94;67.13;94047.19;4970670;28;20232;-69
2024/03/28 09:53:10;;;;;;;2.70;2.30;;;;;;;8.90;67.81;94060.50;4971679;28;20960;-69
2024/03/28 09:55:39;;;;;;;3.00;2.70;;;;;;;9.11;66.88;94041.50;4968249;28;20456;-70
2024/03/28 09:58:05;;;;;;;2.33;1.83;;;;;;;9.06;66.37;94035.78;4961290;28;20432;-69
2024/03/28 10:00:30;;;;;;;2.10;1.73;;;;;;;8.90;66.83;94041.34;4967453;28;20450;-67
2024/03/28 10:02:59;;;;;;;2.00;1.50;;;;;;;9.13;66.21;94044.00;4973520;28;20184;-68
2024/03/28 10:05:26;;;;;;;3.17;1.77;;;;;;;9.01;66.69;94027.47;4977891;28;20200;-71
2024/03/28 10:07:52;;;;;;;2.03;1.50;;;;;;;9.34;65.31;94018.81;4965164;28;20451;-68
2024/03/28 10:10:19;;;;;;;3.80;1.73;;;;;;;9.09;66.67;94027.69;4980154;28;20553;-69
2024/03/28 10:12:54;;;;;;;3.07;2.20;;;;;;;9.15;66.59;94037.72;4965398;28;21154;-70
2024/03/28 10:15:20;;;;;;;2.70;2.03;;;;;;;9.19;65.12;94030.44;4968416;28;20435;-69
2024/03/28 10:17:58;;;;;;;3.77;2.30;;;;;;;9.03;66.23;94031.63;4969014;28;20677;-69
2024/03/28 10:20:24;;;;;;;3.17;2.60;;;;;;;9.18;65.09;94024.38;4986405;28;20456;-70
2024/03/28 10:22:52;;;;;;;1.70;1.53;;;;;;;9.20;65.35;94025.09;4973057;28;20432;-69
2024/03/28 10:25:25;;;;;;;2.37;1.80;;;;;;;9.38;64.66;94029.88;4975577;28;20520;-69
2024/03/28 10:27:56;;;;;;;2.37;2.17;;;;;;;9.25;65.92;94037.84;4968410;28;20486;-69
2024/03/28 10:30:24;;;;;;;2.00;1.37;;;;;;;9.27;64.92;94028.09;4964174;28;20616;-70
2024/03/28 10:33:03;;;;;;;2.60;1.37;;;;;;;9.31;64.90;94032.16;4972138;28;20616;-68
2024/03/28 10:35:32;;;;;;;3.07;1.90;;;;;;;9.32;64.91;94039.03;4968628;28;20428;-69
2024/03/28 10:38:04;;;;;;;1.77;1.50;;;;;;;9.42;64.96;94026.06;4973933;28;20443;-71
2024/03/28 10:40:32;;;;;;;1.70;1.20;;;;;;;9.39;63.85;94028.94;4977524;28;20982;-69
2024/03/28 10:43:02;;;;;;;3.67;1.63;;;;;;;9.41;63.48;94040.13;4981273;28;20432;-70
2024/03/28 10:45:31;;;;;;;2.33;1.70;;;;;;;9.32;64.14;94047.72;4971806;28;21212;-69
2024/03/28 10:47:58;;;;;;;1.70;1.40;;;;;;;9.40;62.95;94060.25;4961174;28;20441;-73
2024/03/28 10:50:45;;;;;;;2.47;1.50;;;;;;;9.29;63.88;94065.44;4974270;28;20485;-70
2024/03/28 10:53:35;;;;;;;2.17;1.20;;;;;;;9.25;62.35;94056.16;4973948;28;20580;-69
2024/03/28 10:56:12;;;;;;;1.40;1.20;;;;;;;9.36;62.65;94057.97;4973586;28;20446;-69
2024/03/28 10:58:38;;;;;;;1.63;1.10;;;;;;;9.24;62.59;94059.75;4972567;28;20443;-69
2024/03/28 11:01:05;;;;;;;2.00;1.40;;;;;;;9.19;62.91;94075.78;4971342;28;20457;-69
2024/03/28 11:03:31;;;;;;;2.30;1.23;;;;;;;9.29;62.08;94066.28;4974035;28;20436;-70
2024/03/28 11:06:00;;;;;;;3.60;1.80;;;;;;;9.24;64.11;94057.94;4982651;28;20431;-68
2024/03/28 11:08:32;;;;;;;2.73;1.40;;;;;;;9.40;62.75;94088.19;4979261;28;20185;-69
2024/03/28 11:11:01;;;;;;;2.00;1.27;;;;;;;9.40;62.11;94096.88;4976483;28;20471;-69
2024/03/28 11:13:28;;;;;;;1.33;1.13;;;;;;;9.38;61.59;94088.31;4964410;28;20538;-69
2024/03/28 11:16:07;;;;;;;1.50;1.40;;;;;;;9.26;62.28;94092.69;4972664;28;20864;-69
2024/03/28 11:18:33;;;;;;;2.63;1.33;;;;;;;9.35;61.46;94101.59;4965728;28;21022;-70
2024/03/28 11:21:05;;;;;;;1.50;1.30;;;;;;;9.28;61.10;94080.34;4973454;28;20460;-68
2024/03/28 11:23:32;;;;;;;2.93;1.40;;;;;;;9.41;60.57;94103.78;4965297;28;20189;-71
2024/03/28 11:26:05;;;;;;;1.60;1.50;;;;;;;9.41;61.51;94105.56;4970328;28;20440;-69
2024/03/28 11:28:31;;;;;;;2.00;1.80;;;;;;;9.57;60.46;94099.97;4965492;28;20468;-69
2024/03/28 11:30:57;;;;;;;2.20;1.60;;;;;;;9.73;60.06;94108.31;4961848;28;20971;-69
2024/03/28 11:33:33;;;;;;;1.70;1.33;;;;;;;9.74;59.66;94102.97;4973587;28;20430;-70
2024/03/28 11:36:04;;;;;;;1.60;1.20;;;;;;;9.86;58.67;94122.13;4964732;28;20193;-70
2024/03/28 11:38:29;;;;;;;2.30;1.70;;;;;;;9.77;59.45;94128.09;4961980;28;20481;-70
2024/03/28 11:40:55;;;;;;;2.53;1.40;;;;;;;9.62;59.82;94126.66;4971906;28;20441;-70
2024/03/28 11:43:22;;;;;;;2.60;1.60;;;;;;;9.54;59.27;94156.88;4970337;28;20246;-70